KBED/BED METAR and TAF weather

Enter ICAO airport designator
Station Type Date Time Source
KBED METAR 2020/06/06 14:51 UTC NOAA

KBED 061451Z 26008KT 10SM BKN021 28/21 A2970 RMK AO2 SLP068 6//// T02830206 58013 PNO


Station Type Date Time Source
KBED Decoded METAR 2020/06/06 14:51 UTC NOAA

BEDFORD HANSCOM FIELD, MA, United States (KBED) 42-28N 071-18W 50M
Jun 06, 2020 - 10:51 AM EDT / 2020.06.06 1451 UTC
Wind: from the W (260 degrees) at 9 MPH (8 KT):0
Visibility: 10 mile(s):0
Sky conditions: mostly cloudy
Temperature: 82.9 F (28.3 C)
Dew Point: 69.1 F (20.6 C)
Relative Humidity: 63%
Pressure (altimeter): 29.7 in. Hg (1005 hPa)
Pressure tendency: 0.04 inches (1.3 hPa) lower than three hours ago
ob: KBED 061451Z 26008KT 10SM BKN021 28/21 A2970 RMK AO2 SLP068 6//// T02830206 58013 PNO
cycle: 15

Station Type Date Time Source
KBED TAF 2020/06/06 15:18 UTC NOAA

TAF
AMD KBED 061517Z 0615/0712 26008KT P6SM BKN021
FM061800 26011G22KT P6SM -SHRA VCTS BKN050CB
FM062200 31007KT P6SM BKN100

Example: see airport list